createdAt,value
2016-06-21T00:02:07.550Z,0
2016-06-21T00:05:26.116Z,0
2016-06-21T00:08:29.081Z,0
2016-06-21T00:11:41.091Z,0
2016-06-21T00:14:54.861Z,0
2016-06-21T00:18:08.782Z,0
2016-06-21T00:21:28.740Z,0
2016-06-21T00:24:31.670Z,0
2016-06-21T00:27:46.431Z,0
2016-06-21T00:30:59.015Z,0
2016-06-21T00:34:12.083Z,0
2016-06-21T00:37:31.641Z,0
2016-06-21T00:40:34.533Z,0
2016-06-21T00:43:48.032Z,0
2016-06-21T00:46:59.385Z,1
2016-06-21T00:50:13.219Z,0
2016-06-21T00:53:26.765Z,0
2016-06-21T00:56:40.231Z,0
2016-06-21T00:59:52.880Z,0
2016-06-21T01:03:06.357Z,0
2016-06-21T01:06:26.002Z,0
2016-06-21T01:09:28.950Z,0
2016-06-21T01:12:42.776Z,0
2016-06-21T01:15:56.227Z,0
2016-06-21T01:19:10.014Z,0
2016-06-21T01:22:29.533Z,0
2016-06-21T01:25:32.404Z,0
2016-06-21T01:28:46.171Z,0
2016-06-21T01:31:59.706Z,0
2016-06-21T01:35:13.460Z,0
2016-06-21T01:38:27.315Z,0
2016-06-21T01:41:38.764Z,0
2016-06-21T01:44:52.364Z,0
2016-06-21T01:48:05.974Z,0
2016-06-21T01:51:25.493Z,0
2016-06-21T01:54:28.251Z,0
2016-06-21T01:57:41.862Z,1
2016-06-21T02:00:56.468Z,0
2016-06-21T02:04:09.032Z,1
2016-06-21T02:07:28.789Z,1
2016-06-21T02:10:31.666Z,1
2016-06-21T02:13:45.397Z,2
2016-06-21T02:16:58.975Z,2
2016-06-21T02:20:12.539Z,3
2016-06-21T02:23:29.845Z,3
2016-06-21T02:26:32.675Z,5
2016-06-21T02:29:46.381Z,9
2016-06-21T02:33:00.026Z,9
2016-06-21T02:36:13.064Z,12
2016-06-21T02:39:26.033Z,24
2016-06-21T02:42:39.386Z,24
2016-06-21T02:45:53.001Z,31
2016-06-21T02:49:06.758Z,35
2016-06-21T02:52:26.523Z,34
2016-06-21T02:55:29.385Z,41
2016-06-21T02:58:43.309Z,52
2016-06-21T03:01:56.894Z,57
2016-06-21T03:05:10.706Z,76
2016-06-21T03:08:30.451Z,79
2016-06-21T03:11:33.331Z,67
2016-06-21T03:14:47.120Z,107
2016-06-21T03:18:01.422Z,91
2016-06-21T03:21:14.655Z,104
2016-06-21T03:24:28.338Z,122
2016-06-21T03:27:42.028Z,158
2016-06-21T03:30:55.351Z,239
2016-06-21T03:34:08.911Z,221
2016-06-21T03:37:28.713Z,194
2016-06-21T03:40:31.557Z,143
2016-06-21T03:43:45.451Z,178
2016-06-21T03:46:59.047Z,231
2016-06-21T03:50:12.401Z,434
2016-06-21T03:53:26.366Z,580
2016-06-21T03:56:38.529Z,732
2016-06-21T03:59:52.347Z,816
2016-06-21T04:03:04.192Z,896
2016-06-21T04:06:23.998Z,645
2016-06-21T04:09:26.811Z,681
2016-06-21T04:12:40.344Z,715
2016-06-21T04:15:54.196Z,513
2016-06-21T04:19:07.703Z,479
2016-06-21T04:22:24.331Z,438
2016-06-21T04:25:27.214Z,491
2016-06-21T04:28:41.039Z,503
2016-06-21T04:31:54.371Z,753
2016-06-21T04:35:08.071Z,958
2016-06-21T04:38:27.198Z,1079
2016-06-21T04:41:30.118Z,1092
2016-06-21T04:44:43.922Z,1382
2016-06-21T04:47:57.451Z,1263
2016-06-21T04:51:08.020Z,1333
2016-06-21T04:54:27.676Z,1187
2016-06-21T04:57:30.613Z,1218
2016-06-21T05:00:44.221Z,942
2016-06-21T05:03:57.882Z,749
2016-06-21T05:07:11.579Z,663
2016-06-21T05:10:28.006Z,590
2016-06-21T05:13:30.801Z,633
2016-06-21T05:16:44.544Z,522
2016-06-21T05:19:58.120Z,622
2016-06-21T05:23:11.850Z,1113
2016-06-21T05:26:31.242Z,924
2016-06-21T05:29:34.424Z,1014
2016-06-21T05:32:48.051Z,942
2016-06-21T05:36:01.396Z,1233
2016-06-21T05:39:15.039Z,2708
2016-06-21T05:42:28.826Z,1231
2016-06-21T05:45:40.357Z,1092
2016-06-21T05:48:54.324Z,1386
2016-06-21T05:52:07.942Z,1066
2016-06-21T05:55:27.422Z,1117
2016-06-21T05:58:30.250Z,1604
2016-06-21T06:01:43.962Z,1658
2016-06-21T06:04:57.525Z,1924
2016-06-21T06:08:10.990Z,3310
2016-06-21T06:11:30.621Z,2006
2016-06-21T06:14:33.538Z,3232
2016-06-21T06:17:46.660Z,3380
2016-06-21T06:21:00.383Z,4586
2016-06-21T06:24:14.130Z,4743
2016-06-21T06:27:27.835Z,3388
2016-06-21T06:30:41.353Z,4027
2016-06-21T06:33:55.078Z,3940
2016-06-21T06:37:09.029Z,5013
2016-06-21T06:40:29.045Z,4900
2016-06-21T06:43:31.990Z,4712
2016-06-21T06:46:45.777Z,7306
2016-06-21T06:49:59.366Z,5415
2016-06-21T06:53:13.121Z,4596
2016-06-21T06:56:26.798Z,3369
2016-06-21T06:59:40.413Z,5317
2016-06-21T07:02:54.245Z,2451
2016-06-21T07:06:07.741Z,3377
2016-06-21T07:09:27.418Z,2765
2016-06-21T07:12:30.544Z,3036
2016-06-21T07:15:42.201Z,2983
2016-06-21T07:18:52.706Z,1782
2016-06-21T07:22:06.080Z,1469
2016-06-21T07:25:25.881Z,1555
2016-06-21T07:28:28.920Z,1222
2016-06-21T07:31:42.807Z,2167
2016-06-21T07:34:56.863Z,1894
2016-06-21T07:38:10.093Z,2755
2016-06-21T07:41:29.874Z,2629
2016-06-21T07:44:33.015Z,3501
2016-06-21T07:47:46.109Z,4018
2016-06-21T07:50:59.287Z,4847
2016-06-21T07:54:13.137Z,4653
2016-06-21T07:57:27.094Z,2970
2016-06-21T08:00:41.170Z,5746
2016-06-21T08:03:55.012Z,11055
2016-06-21T08:07:08.703Z,10444
2016-06-21T08:10:28.806Z,7240
2016-06-21T08:13:32.071Z,3986
2016-06-21T08:16:42.232Z,2053
2016-06-21T08:19:55.959Z,1475
2016-06-21T08:23:08.254Z,1402
2016-06-21T08:26:28.033Z,2411
2016-06-21T08:29:31.356Z,4062
2016-06-21T08:32:44.924Z,8911
2016-06-21T08:35:59.005Z,8378
2016-06-21T08:39:12.906Z,11740
2016-06-21T08:42:27.143Z,4056
2016-06-21T08:45:41.302Z,3009
2016-06-21T08:48:51.516Z,3722
2016-06-21T08:52:04.829Z,4272
2016-06-21T08:55:24.733Z,5695
2016-06-21T08:58:27.980Z,10972
2016-06-21T09:01:42.175Z,16182
2016-06-21T09:04:55.240Z,16441
2016-06-21T09:08:08.764Z,16009
2016-06-21T09:11:28.678Z,11269
2016-06-21T09:14:32.140Z,15943
2016-06-21T09:17:45.664Z,6196
2016-06-21T09:20:59.325Z,384
2016-06-21T09:24:13.504Z,4017
2016-06-21T09:27:27.066Z,1610
2016-06-21T09:30:40.808Z,1964
2016-06-21T09:33:54.182Z,2083
2016-06-21T09:37:07.464Z,3921
2016-06-21T09:40:26.642Z,5329
2016-06-21T09:43:29.668Z,6993
2016-06-21T09:46:43.249Z,9974
2016-06-21T09:49:57.129Z,13539
2016-06-21T09:53:10.693Z,12770
2016-06-21T09:56:30.314Z,5529
2016-06-21T09:59:33.619Z,3549
2016-06-21T10:02:46.948Z,8076
2016-06-21T10:06:00.271Z,6001
2016-06-21T10:09:14.096Z,10916
2016-06-21T10:12:28.252Z,17072
2016-06-21T10:15:40.173Z,12018
2016-06-21T10:18:54.136Z,14907
2016-06-21T10:22:08.294Z,11606
2016-06-21T10:25:28.624Z,12957
2016-06-21T10:28:31.967Z,12279
2016-06-21T10:31:46.079Z,16747
2016-06-21T10:35:00.250Z,16898
2016-06-21T10:38:14.474Z,13104
2016-06-21T10:41:28.636Z,14695
2016-06-21T10:44:42.832Z,11261
2016-06-21T10:47:56.681Z,11107
2016-06-21T10:51:10.439Z,11752
2016-06-21T10:54:29.506Z,11268
2016-06-21T10:57:33.280Z,11421
2016-06-21T11:00:47.104Z,12258
2016-06-21T11:04:01.321Z,10476
2016-06-21T11:07:15.506Z,10811
2016-06-21T11:10:27.534Z,10694
2016-06-21T11:13:41.530Z,11026
2016-06-21T11:16:53.723Z,13106
2016-06-21T11:20:07.971Z,14829
2016-06-21T11:23:28.318Z,15323
2016-06-21T11:26:31.803Z,14674
2016-06-21T11:29:46.126Z,13788
2016-06-21T11:33:00.435Z,13658
2016-06-21T11:36:14.653Z,10810
2016-06-21T11:39:28.685Z,11338
2016-06-21T11:42:42.719Z,10952
2016-06-21T11:45:56.978Z,10798
2016-06-21T11:49:11.359Z,10694
2016-06-21T11:52:31.628Z,11843
2016-06-21T11:55:35.175Z,11632
2016-06-21T11:58:47.300Z,12079
2016-06-21T12:02:01.605Z,11448
2016-06-21T12:05:15.839Z,10243
2016-06-21T12:08:32.321Z,9856
2016-06-21T12:11:42.047Z,9387
2016-06-21T12:14:56.118Z,8175
2016-06-21T12:18:10.465Z,6577
2016-06-21T12:21:30.325Z,6656
2016-06-21T12:24:33.759Z,5722
2016-06-21T12:27:47.763Z,5644
2016-06-21T12:31:01.882Z,5951
2016-06-21T12:34:15.991Z,6424
2016-06-21T12:37:30.059Z,8326
2016-06-21T12:40:44.168Z,8531
2016-06-21T12:43:58.514Z,8874
2016-06-21T12:47:10.445Z,9095
2016-06-21T12:50:30.724Z,10091
2016-06-21T12:53:34.303Z,9941
2016-06-21T12:56:45.788Z,9684
2016-06-21T13:00:00.111Z,10236
2016-06-21T13:03:14.226Z,9939
2016-06-21T13:06:28.490Z,8130
2016-06-21T13:09:42.750Z,7200
2016-06-21T13:12:56.903Z,2839
2016-06-21T13:16:11.035Z,2206
2016-06-21T13:19:31.293Z,2435
2016-06-21T13:22:34.627Z,4330
2016-06-21T13:25:48.807Z,2657
2016-06-21T13:29:03.054Z,2088
2016-06-21T13:32:23.149Z,2252
2016-06-21T13:35:26.551Z,2482
2016-06-21T13:38:40.754Z,2268
2016-06-21T13:41:53.531Z,2304
2016-06-21T13:45:05.942Z,2183
2016-06-21T13:48:26.237Z,2171
2016-06-21T13:51:29.708Z,2235
2016-06-21T13:54:43.951Z,2528
2016-06-21T13:57:56.809Z,2535
2016-06-21T14:01:10.943Z,3502
2016-06-21T14:04:31.094Z,3755
2016-06-21T14:07:34.421Z,4187
2016-06-21T14:10:48.623Z,5212
2016-06-21T14:13:59.415Z,6111
2016-06-21T14:17:13.358Z,4981
2016-06-21T14:20:30.345Z,4056
2016-06-21T14:23:33.779Z,6256
2016-06-21T14:26:46.915Z,5221
2016-06-21T14:30:01.194Z,4959
2016-06-21T14:33:15.518Z,5318
2016-06-21T14:36:28.585Z,5010
2016-06-21T14:39:43.095Z,5837
2016-06-21T14:42:57.233Z,4204
2016-06-21T14:46:11.584Z,3707
2016-06-21T14:49:31.989Z,3519
2016-06-21T14:52:35.588Z,3403
2016-06-21T14:55:49.917Z,3118
2016-06-21T14:59:04.870Z,3010
2016-06-21T15:02:24.249Z,6094
2016-06-21T15:05:27.699Z,5026
2016-06-21T15:08:38.619Z,4368
2016-06-21T15:11:52.822Z,5265
2016-06-21T15:15:07.298Z,4192
2016-06-21T15:18:27.734Z,2583
2016-06-21T15:21:31.326Z,3372
2016-06-21T15:24:45.439Z,2786
2016-06-21T15:27:59.770Z,2662
2016-06-21T15:31:13.896Z,2694
2016-06-21T15:34:28.136Z,3413
2016-06-21T15:37:42.559Z,2956
2016-06-21T15:40:56.869Z,2452
2016-06-21T15:44:11.237Z,2906
2016-06-21T15:47:31.518Z,3797
2016-06-21T15:50:35.057Z,2547
2016-06-21T15:53:46.545Z,2290
2016-06-21T15:57:00.704Z,2080
2016-06-21T16:00:14.539Z,1926
2016-06-21T16:03:32.350Z,2484
2016-06-21T16:06:35.921Z,2408
2016-06-21T16:09:50.486Z,3040
2016-06-21T16:13:04.673Z,2394
2016-06-21T16:16:24.763Z,2643
2016-06-21T16:19:28.230Z,2032
2016-06-21T16:22:42.549Z,1957
2016-06-21T16:25:56.735Z,1821
2016-06-21T16:29:11.152Z,1791
2016-06-21T16:32:31.325Z,1956
2016-06-21T16:35:34.988Z,2144
2016-06-21T16:38:49.054Z,2523
2016-06-21T16:42:03.207Z,2836
2016-06-21T16:45:23.396Z,2320
2016-06-21T16:48:26.936Z,1842
2016-06-21T16:51:39.926Z,2704
2016-06-21T16:54:54.050Z,2561
2016-06-21T16:58:08.464Z,2739
2016-06-21T17:01:29.006Z,2430
2016-06-21T17:04:32.422Z,1739
2016-06-21T17:07:46.402Z,1587
2016-06-21T17:11:00.828Z,1621
2016-06-21T17:14:14.831Z,2094
2016-06-21T17:17:26.741Z,1471
2016-06-21T17:20:37.746Z,1414
2016-06-21T17:23:52.196Z,1495
2016-06-21T17:27:05.337Z,1809
2016-06-21T17:30:25.347Z,1832
2016-06-21T17:33:28.874Z,1673
2016-06-21T17:36:42.848Z,1530
2016-06-21T17:39:57.241Z,1674
2016-06-21T17:43:11.583Z,1757
2016-06-21T17:46:31.784Z,1409
2016-06-21T17:49:35.368Z,1606
2016-06-21T17:52:49.698Z,2149
2016-06-21T17:56:01.509Z,1583
2016-06-21T17:59:15.735Z,1179
2016-06-21T18:02:29.822Z,1141
2016-06-21T18:05:44.155Z,1085
2016-06-21T18:08:58.345Z,992
2016-06-21T18:12:12.534Z,396
2016-06-21T18:15:32.742Z,1034
2016-06-21T18:18:36.249Z,1020
2016-06-21T18:21:47.082Z,919
2016-06-21T18:25:01.148Z,904
2016-06-21T18:28:15.291Z,828
2016-06-21T18:31:29.308Z,851
2016-06-21T18:34:43.707Z,782
2016-06-21T18:37:55.708Z,730
2016-06-21T18:41:09.849Z,677
2016-06-21T18:44:30.174Z,625
2016-06-21T18:47:33.621Z,604
2016-06-21T18:50:47.816Z,592
2016-06-21T18:53:59.752Z,551
2016-06-21T18:57:14.262Z,384
2016-06-21T19:00:28.290Z,384
2016-06-21T19:03:42.152Z,384
2016-06-21T19:06:56.205Z,384
2016-06-21T19:10:09.975Z,384
2016-06-21T19:13:29.382Z,384
2016-06-21T19:16:32.647Z,384
2016-06-21T19:19:43.533Z,384
2016-06-21T19:22:57.526Z,384
2016-06-21T19:26:11.371Z,384
2016-06-21T19:29:28.197Z,384
2016-06-21T19:32:31.346Z,384
2016-06-21T19:35:45.660Z,384
2016-06-21T19:38:59.741Z,384
2016-06-21T19:42:14.565Z,384
2016-06-21T19:45:27.501Z,384
2016-06-21T19:48:39.894Z,384
2016-06-21T19:51:53.758Z,384
2016-06-21T19:55:08.017Z,384
2016-06-21T19:58:27.631Z,384
2016-06-21T20:01:30.805Z,384
2016-06-21T20:04:44.624Z,384
2016-06-21T20:07:58.261Z,384
2016-06-21T20:11:12.172Z,384
2016-06-21T20:14:32.145Z,384
2016-06-21T20:17:35.334Z,384
2016-06-21T20:20:47.903Z,384
2016-06-21T20:24:01.699Z,384
2016-06-21T20:27:15.475Z,384
2016-06-21T20:30:29.043Z,384
2016-06-21T20:33:43.182Z,384
2016-06-21T20:36:57.136Z,384
2016-06-21T20:40:11.042Z,384
2016-06-21T20:43:30.862Z,384
2016-06-21T20:46:33.948Z,384
2016-06-21T20:49:44.555Z,384
2016-06-21T20:52:58.601Z,384
2016-06-21T20:56:11.998Z,384
2016-06-21T20:59:31.196Z,384
2016-06-21T21:02:34.254Z,384
2016-06-21T21:05:46.845Z,384
2016-06-21T21:08:56.975Z,384
2016-06-21T21:12:10.953Z,384
2016-06-21T21:15:31.292Z,384
2016-06-21T21:18:34.659Z,384
2016-06-21T21:21:46.072Z,384
2016-06-21T21:25:00.108Z,384
2016-06-21T21:28:13.880Z,384
2016-06-21T21:31:27.742Z,384
2016-06-21T21:34:41.859Z,384
2016-06-21T21:37:55.758Z,384
2016-06-21T21:41:09.158Z,384
2016-06-21T21:44:29.045Z,384
2016-06-21T21:47:32.139Z,384
2016-06-21T21:50:46.102Z,384
2016-06-21T21:53:59.893Z,384
2016-06-21T21:57:12.104Z,384
2016-06-21T22:00:29.814Z,384
2016-06-21T22:03:32.995Z,384
2016-06-21T22:06:45.497Z,384
2016-06-21T22:09:58.680Z,384
2016-06-21T22:13:10.038Z,384
2016-06-21T22:16:29.763Z,384
2016-06-21T22:19:32.781Z,384
2016-06-21T22:22:46.562Z,384
2016-06-21T22:26:00.326Z,384
2016-06-21T22:29:14.050Z,384
2016-06-21T22:32:32.626Z,384
2016-06-21T22:35:35.659Z,384
2016-06-21T22:38:49.411Z,384
2016-06-21T22:42:03.296Z,384
2016-06-21T22:45:17.082Z,384
2016-06-21T22:48:30.553Z,384
2016-06-21T22:51:42.496Z,384
2016-06-21T22:54:52.568Z,384
2016-06-21T22:58:06.189Z,384
2016-06-21T23:01:25.699Z,384
2016-06-21T23:04:28.568Z,384
2016-06-21T23:07:42.168Z,384
2016-06-21T23:10:55.664Z,384
2016-06-21T23:14:09.251Z,384
2016-06-21T23:17:28.240Z,384
2016-06-21T23:20:31.138Z,384
2016-06-21T23:23:45.001Z,384
2016-06-21T23:26:58.859Z,384
2016-06-21T23:30:12.187Z,384
2016-06-21T23:33:29.704Z,384
2016-06-21T23:36:32.757Z,384
2016-06-21T23:39:46.532Z,384
2016-06-21T23:43:00.381Z,384
2016-06-21T23:46:14.072Z,384
2016-06-21T23:49:33.787Z,384
2016-06-21T23:52:36.678Z,384
2016-06-21T23:55:50.180Z,384
2016-06-21T23:59:03.949Z,384
